sensor_id;sensor_type;location;lat;lon;timestamp;P1;durP1;ratioP1;P2;durP2;ratioP2
37297;SDS011;30517;51.932;4.278;2023-03-13T05:27:51;8.40;;;3.85;;
37297;SDS011;30517;51.932;4.278;2023-03-13T05:30:32;11.80;;;3.80;;
37297;SDS011;30517;51.932;4.278;2023-03-13T05:33:13;9.10;;;3.72;;
37297;SDS011;30517;51.932;4.278;2023-03-13T05:35:54;6.32;;;3.42;;
37297;SDS011;30517;51.932;4.278;2023-03-13T05:38:35;10.20;;;4.35;;
37297;SDS011;30517;51.932;4.278;2023-03-13T05:41:15;8.75;;;3.25;;
37297;SDS011;30517;51.932;4.278;2023-03-13T05:43:56;10.88;;;3.10;;
37297;SDS011;30517;51.932;4.278;2023-03-13T05:46:37;12.75;;;3.30;;
37297;SDS011;30517;51.932;4.278;2023-03-13T05:49:18;9.43;;;3.22;;
37297;SDS011;30517;51.932;4.278;2023-03-13T05:51:59;8.75;;;3.28;;
37297;SDS011;30517;51.932;4.278;2023-03-13T05:54:41;8.48;;;3.05;;
37297;SDS011;30517;51.932;4.278;2023-03-13T05:57:22;8.10;;;3.15;;
37297;SDS011;30517;51.932;4.278;2023-03-13T06:00:03;9.65;;;3.05;;
37297;SDS011;30517;51.932;4.278;2023-03-13T06:02:44;7.32;;;3.30;;
37297;SDS011;30517;51.932;4.278;2023-03-13T06:05:25;7.05;;;3.45;;
37297;SDS011;30517;51.932;4.278;2023-03-13T06:08:06;4.80;;;2.38;;
37297;SDS011;30517;51.932;4.278;2023-03-13T06:10:47;9.05;;;2.92;;
37297;SDS011;30517;51.932;4.278;2023-03-13T06:13:28;6.95;;;2.58;;
37297;SDS011;30517;51.932;4.278;2023-03-13T06:16:09;7.22;;;2.90;;
37297;SDS011;30517;51.932;4.278;2023-03-13T06:18:50;7.10;;;2.88;;
37297;SDS011;30517;51.932;4.278;2023-03-13T06:21:31;10.40;;;3.30;;
37297;SDS011;30517;51.932;4.278;2023-03-13T06:24:11;8.27;;;2.72;;
37297;SDS011;30517;51.932;4.278;2023-03-13T06:26:52;11.20;;;3.30;;
37297;SDS011;30517;51.932;4.278;2023-03-13T06:29:33;7.13;;;2.67;;
37297;SDS011;30517;51.932;4.278;2023-03-13T06:32:14;6.75;;;2.97;;
37297;SDS011;30517;51.932;4.278;2023-03-13T06:34:55;6.95;;;2.70;;
37297;SDS011;30517;51.932;4.278;2023-03-13T06:37:36;8.38;;;3.08;;
37297;SDS011;30517;51.932;4.278;2023-03-13T06:40:17;7.38;;;3.00;;
37297;SDS011;30517;51.932;4.278;2023-03-13T06:42:57;6.70;;;2.80;;
37297;SDS011;30517;51.932;4.278;2023-03-13T06:45:38;5.65;;;2.50;;
37297;SDS011;30517;51.932;4.278;2023-03-13T06:48:19;10.07;;;3.08;;
37297;SDS011;30517;51.932;4.278;2023-03-13T06:51:02;5.97;;;2.95;;
37297;SDS011;30517;51.932;4.278;2023-03-13T06:53:42;8.20;;;3.08;;
37297;SDS011;30517;51.932;4.278;2023-03-13T06:56:23;6.53;;;2.55;;
37297;SDS011;30517;51.932;4.278;2023-03-13T06:59:04;8.77;;;3.47;;
37297;SDS011;30517;51.932;4.278;2023-03-13T07:01:45;7.90;;;2.70;;
37297;SDS011;30517;51.932;4.278;2023-03-13T07:04:26;4.60;;;2.33;;
37297;SDS011;30517;51.932;4.278;2023-03-13T07:07:07;6.57;;;3.05;;
37297;SDS011;30517;51.932;4.278;2023-03-13T07:09:48;7.97;;;2.70;;
37297;SDS011;30517;51.932;4.278;2023-03-13T07:12:28;7.38;;;3.28;;
37297;SDS011;30517;51.932;4.278;2023-03-13T07:15:09;9.18;;;3.22;;
37297;SDS011;30517;51.932;4.278;2023-03-13T07:20:36;7.93;;;2.92;;
37297;SDS011;30517;51.932;4.278;2023-03-13T07:23:17;8.75;;;3.00;;
37297;SDS011;30517;51.932;4.278;2023-03-13T07:25:59;5.78;;;2.72;;
37297;SDS011;30517;51.932;4.278;2023-03-13T07:28:44;6.32;;;2.90;;
37297;SDS011;30517;51.932;4.278;2023-03-13T07:31:26;8.02;;;2.53;;
37297;SDS011;30517;51.932;4.278;2023-03-13T07:34:08;6.25;;;2.88;;
37297;SDS011;30517;51.932;4.278;2023-03-13T07:36:49;5.97;;;2.95;;
37297;SDS011;30517;51.932;4.278;2023-03-13T07:39:30;7.43;;;2.83;;
37297;SDS011;30517;51.932;4.278;2023-03-13T07:42:11;7.13;;;2.78;;
37297;SDS011;30517;51.932;4.278;2023-03-13T07:44:52;6.28;;;2.83;;
37297;SDS011;30517;51.932;4.278;2023-03-13T07:47:33;5.53;;;2.80;;
37297;SDS011;30517;51.932;4.278;2023-03-13T07:50:15;9.18;;;2.60;;
37297;SDS011;30517;51.932;4.278;2023-03-13T07:52:56;8.70;;;2.28;;
37297;SDS011;30517;51.932;4.278;2023-03-13T07:55:36;7.20;;;2.60;;
37297;SDS011;30517;51.932;4.278;2023-03-13T07:58:17;7.45;;;2.20;;
37297;SDS011;30517;51.932;4.278;2023-03-13T08:00:58;6.15;;;2.10;;
37297;SDS011;30517;51.932;4.278;2023-03-13T08:03:39;5.72;;;2.30;;
37297;SDS011;30517;51.932;4.278;2023-03-13T08:06:24;5.63;;;2.30;;
37297;SDS011;30517;51.932;4.278;2023-03-13T08:09:06;7.15;;;2.58;;
37297;SDS011;30517;51.932;4.278;2023-03-13T08:11:47;4.88;;;2.22;;
37297;SDS011;30517;51.932;4.278;2023-03-13T08:14:28;5.13;;;2.00;;
37297;SDS011;30517;51.932;4.278;2023-03-13T08:17:09;5.97;;;2.03;;
37297;SDS011;30517;51.932;4.278;2023-03-13T08:19:50;6.05;;;2.22;;
37297;SDS011;30517;51.932;4.278;2023-03-13T08:22:31;4.55;;;1.95;;
37297;SDS011;30517;51.932;4.278;2023-03-13T08:25:12;6.97;;;2.08;;
37297;SDS011;30517;51.932;4.278;2023-03-13T08:27:54;4.63;;;2.20;;
37297;SDS011;30517;51.932;4.278;2023-03-13T08:30:34;6.38;;;2.03;;
37297;SDS011;30517;51.932;4.278;2023-03-13T08:33:15;4.95;;;1.90;;
37297;SDS011;30517;51.932;4.278;2023-03-13T08:35:56;3.63;;;1.88;;
37297;SDS011;30517;51.932;4.278;2023-03-13T08:38:37;6.60;;;2.20;;
37297;SDS011;30517;51.932;4.278;2023-03-13T08:41:25;5.80;;;2.42;;
37297;SDS011;30517;51.932;4.278;2023-03-13T08:44:12;5.50;;;2.17;;
37297;SDS011;30517;51.932;4.278;2023-03-13T08:46:55;4.10;;;1.58;;
37297;SDS011;30517;51.932;4.278;2023-03-13T08:49:36;5.80;;;2.00;;
37297;SDS011;30517;51.932;4.278;2023-03-13T08:52:16;9.32;;;2.05;;
37297;SDS011;30517;51.932;4.278;2023-03-13T08:54:57;4.07;;;1.70;;
37297;SDS011;30517;51.932;4.278;2023-03-13T08:57:38;4.75;;;1.92;;
37297;SDS011;30517;51.932;4.278;2023-03-13T09:00:19;5.75;;;1.83;;
37297;SDS011;30517;51.932;4.278;2023-03-13T09:03:00;6.35;;;2.00;;
37297;SDS011;30517;51.932;4.278;2023-03-13T09:05:40;5.63;;;1.92;;
37297;SDS011;30517;51.932;4.278;2023-03-13T09:08:21;5.25;;;2.30;;
37297;SDS011;30517;51.932;4.278;2023-03-13T09:11:06;5.63;;;1.70;;
37297;SDS011;30517;51.932;4.278;2023-03-13T09:13:49;6.28;;;1.80;;
37297;SDS011;30517;51.932;4.278;2023-03-13T09:16:31;9.35;;;2.20;;
37297;SDS011;30517;51.932;4.278;2023-03-13T09:19:13;4.13;;;1.67;;
37297;SDS011;30517;51.932;4.278;2023-03-13T09:21:54;5.22;;;1.77;;
37297;SDS011;30517;51.932;4.278;2023-03-13T09:24:36;4.80;;;1.95;;
37297;SDS011;30517;51.932;4.278;2023-03-13T09:27:16;5.03;;;1.60;;
37297;SDS011;30517;51.932;4.278;2023-03-13T09:29:57;4.88;;;1.70;;
37297;SDS011;30517;51.932;4.278;2023-03-13T09:32:38;6.13;;;1.95;;
37297;SDS011;30517;51.932;4.278;2023-03-13T09:35:19;4.10;;;1.63;;
37297;SDS011;30517;51.932;4.278;2023-03-13T09:37:59;4.00;;;1.70;;
37297;SDS011;30517;51.932;4.278;2023-03-13T09:40:41;3.08;;;1.40;;
37297;SDS011;30517;51.932;4.278;2023-03-13T09:46:24;7.72;;;1.90;;
37297;SDS011;30517;51.932;4.278;2023-03-13T09:49:13;5.03;;;1.38;;
37297;SDS011;30517;51.932;4.278;2023-03-13T09:52:24;4.22;;;1.23;;
37297;SDS011;30517;51.932;4.278;2023-03-13T09:55:22;20.30;;;2.65;;
37297;SDS011;30517;51.932;4.278;2023-03-13T09:58:10;7.80;;;1.85;;
37297;SDS011;30517;51.932;4.278;2023-03-13T10:00:57;7.22;;;1.98;;
37297;SDS011;30517;51.932;4.278;2023-03-13T10:03:43;8.75;;;1.67;;
37297;SDS011;30517;51.932;4.278;2023-03-13T10:06:37;7.03;;;2.40;;
37297;SDS011;30517;51.932;4.278;2023-03-13T10:09:23;7.90;;;1.52;;
37297;SDS011;30517;51.932;4.278;2023-03-13T10:12:42;9.07;;;1.75;;
37297;SDS011;30517;51.932;4.278;2023-03-13T10:15:27;7.22;;;1.75;;
37297;SDS011;30517;51.932;4.278;2023-03-13T10:18:15;4.95;;;1.80;;
37297;SDS011;30517;51.932;4.278;2023-03-13T10:21:01;5.93;;;1.80;;
37297;SDS011;30517;51.932;4.278;2023-03-13T10:27:11;9.77;;;2.60;;
37297;SDS011;30517;51.932;4.278;2023-03-13T10:32:35;12.90;;;2.10;;
37297;SDS011;30517;51.932;4.278;2023-03-13T10:35:20;9.05;;;2.00;;
37297;SDS011;30517;51.932;4.278;2023-03-13T10:38:10;5.40;;;1.92;;
37297;SDS011;30517;51.932;4.278;2023-03-13T10:43:51;7.30;;;1.90;;
37297;SDS011;30517;51.932;4.278;2023-03-13T10:46:34;6.57;;;1.67;;
37297;SDS011;30517;51.932;4.278;2023-03-13T10:49:21;8.20;;;1.80;;
37297;SDS011;30517;51.932;4.278;2023-03-13T10:52:04;6.00;;;2.25;;
37297;SDS011;30517;51.932;4.278;2023-03-13T10:54:46;8.23;;;2.15;;
37297;SDS011;30517;51.932;4.278;2023-03-13T10:57:28;7.30;;;2.40;;
37297;SDS011;30517;51.932;4.278;2023-03-13T11:03:18;5.00;;;1.40;;
37297;SDS011;30517;51.932;4.278;2023-03-13T11:06:05;10.73;;;2.47;;
37297;SDS011;30517;51.932;4.278;2023-03-13T11:08:46;9.93;;;2.40;;
37297;SDS011;30517;51.932;4.278;2023-03-13T11:11:27;7.00;;;1.88;;
37297;SDS011;30517;51.932;4.278;2023-03-13T11:14:14;4.63;;;1.92;;
37297;SDS011;30517;51.932;4.278;2023-03-13T11:17:03;3.90;;;1.50;;
37297;SDS011;30517;51.932;4.278;2023-03-13T11:22:49;11.35;;;2.55;;
37297;SDS011;30517;51.932;4.278;2023-03-13T11:25:34;12.70;;;2.90;;
37297;SDS011;30517;51.932;4.278;2023-03-13T11:37:17;9.73;;;2.65;;
37297;SDS011;30517;51.932;4.278;2023-03-13T11:43:06;8.88;;;2.50;;
37297;SDS011;30517;51.932;4.278;2023-03-13T11:51:55;7.68;;;2.30;;
37297;SDS011;30517;51.932;4.278;2023-03-13T11:54:51;7.95;;;2.22;;
37297;SDS011;30517;51.932;4.278;2023-03-13T12:01:11;8.20;;;2.30;;
37297;SDS011;30517;51.932;4.278;2023-03-13T12:07:33;8.30;;;2.17;;
37297;SDS011;30517;51.932;4.278;2023-03-13T12:10:26;9.63;;;2.33;;
37297;SDS011;30517;51.932;4.278;2023-03-13T12:13:21;12.85;;;2.85;;
37297;SDS011;30517;51.932;4.278;2023-03-13T12:16:09;10.35;;;3.20;;
37297;SDS011;30517;51.932;4.278;2023-03-13T12:18:53;15.90;;;2.60;;
37297;SDS011;30517;51.932;4.278;2023-03-13T12:21:36;10.50;;;2.67;;
37297;SDS011;30517;51.932;4.278;2023-03-13T12:24:24;8.20;;;2.15;;
37297;SDS011;30517;51.932;4.278;2023-03-13T12:27:12;9.05;;;2.22;;
37297;SDS011;30517;51.932;4.278;2023-03-13T12:33:20;12.32;;;2.80;;
37297;SDS011;30517;51.932;4.278;2023-03-13T12:36:08;9.05;;;2.47;;
37297;SDS011;30517;51.932;4.278;2023-03-13T12:45:44;11.35;;;2.58;;
37297;SDS011;30517;51.932;4.278;2023-03-13T12:48:43;9.98;;;3.03;;
37297;SDS011;30517;51.932;4.278;2023-03-13T12:58:11;9.82;;;2.78;;
37297;SDS011;30517;51.932;4.278;2023-03-13T13:00:53;13.00;;;2.47;;
37297;SDS011;30517;51.932;4.278;2023-03-13T13:11:57;15.35;;;2.50;;
37297;SDS011;30517;51.932;4.278;2023-03-13T13:20:34;12.30;;;2.97;;
37297;SDS011;30517;51.932;4.278;2023-03-13T13:43:00;13.48;;;3.13;;
37297;SDS011;30517;51.932;4.278;2023-03-13T13:46:02;10.40;;;2.63;;
37297;SDS011;30517;51.932;4.278;2023-03-13T13:49:33;11.35;;;2.22;;
37297;SDS011;30517;51.932;4.278;2023-03-13T13:57:28;13.63;;;3.28;;
37297;SDS011;30517;51.932;4.278;2023-03-13T14:00:16;12.55;;;2.80;;
37297;SDS011;30517;51.932;4.278;2023-03-13T14:03:01;10.82;;;2.75;;
37297;SDS011;30517;51.932;4.278;2023-03-13T14:05:42;14.13;;;3.38;;
37297;SDS011;30517;51.932;4.278;2023-03-13T14:08:31;10.63;;;2.70;;
37297;SDS011;30517;51.932;4.278;2023-03-13T14:11:26;11.55;;;3.13;;
37297;SDS011;30517;51.932;4.278;2023-03-13T14:14:19;15.23;;;3.38;;
37297;SDS011;30517;51.932;4.278;2023-03-13T14:17:01;15.68;;;3.17;;
37297;SDS011;30517;51.932;4.278;2023-03-13T14:19:41;8.77;;;2.63;;
37297;SDS011;30517;51.932;4.278;2023-03-13T14:22:23;12.20;;;3.08;;
37297;SDS011;30517;51.932;4.278;2023-03-13T14:25:04;16.08;;;3.08;;
37297;SDS011;30517;51.932;4.278;2023-03-13T14:27:46;8.45;;;2.85;;
37297;SDS011;30517;51.932;4.278;2023-03-13T14:30:28;6.60;;;1.98;;
37297;SDS011;30517;51.932;4.278;2023-03-13T14:33:09;12.30;;;2.88;;
37297;SDS011;30517;51.932;4.278;2023-03-13T14:35:50;10.85;;;2.95;;
37297;SDS011;30517;51.932;4.278;2023-03-13T14:38:30;12.10;;;2.67;;
37297;SDS011;30517;51.932;4.278;2023-03-13T14:41:31;11.80;;;3.00;;
37297;SDS011;30517;51.932;4.278;2023-03-13T14:44:21;9.82;;;2.58;;
37297;SDS011;30517;51.932;4.278;2023-03-13T14:47:06;12.80;;;2.85;;
37297;SDS011;30517;51.932;4.278;2023-03-13T14:49:53;8.48;;;2.50;;
37297;SDS011;30517;51.932;4.278;2023-03-13T14:52:43;8.95;;;2.20;;
37297;SDS011;30517;51.932;4.278;2023-03-13T14:55:29;13.05;;;2.63;;
37297;SDS011;30517;51.932;4.278;2023-03-13T15:00:59;7.75;;;2.15;;
37297;SDS011;30517;51.932;4.278;2023-03-13T15:03:53;7.82;;;2.28;;
37297;SDS011;30517;51.932;4.278;2023-03-13T15:06:33;10.63;;;3.03;;
37297;SDS011;30517;51.932;4.278;2023-03-13T15:11:58;9.07;;;2.67;;
37297;SDS011;30517;51.932;4.278;2023-03-13T15:14:41;11.45;;;2.45;;
37297;SDS011;30517;51.932;4.278;2023-03-13T15:17:25;7.70;;;2.30;;
37297;SDS011;30517;51.932;4.278;2023-03-13T15:20:09;7.53;;;2.53;;
37297;SDS011;30517;51.932;4.278;2023-03-13T15:22:52;12.50;;;2.65;;
37297;SDS011;30517;51.932;4.278;2023-03-13T15:25:33;11.52;;;2.58;;
37297;SDS011;30517;51.932;4.278;2023-03-13T15:28:18;11.30;;;2.42;;
37297;SDS011;30517;51.932;4.278;2023-03-13T15:31:00;8.43;;;2.25;;
37297;SDS011;30517;51.932;4.278;2023-03-13T15:33:41;13.00;;;3.65;;
37297;SDS011;30517;51.932;4.278;2023-03-13T15:36:23;11.65;;;2.92;;
37297;SDS011;30517;51.932;4.278;2023-03-13T15:39:15;8.07;;;2.30;;
37297;SDS011;30517;51.932;4.278;2023-03-13T15:42:01;12.50;;;2.40;;
37297;SDS011;30517;51.932;4.278;2023-03-13T15:44:42;8.43;;;1.98;;
37297;SDS011;30517;51.932;4.278;2023-03-13T15:47:24;11.38;;;2.67;;
37297;SDS011;30517;51.932;4.278;2023-03-13T15:50:09;14.30;;;3.20;;
37297;SDS011;30517;51.932;4.278;2023-03-13T15:52:56;8.60;;;1.85;;
37297;SDS011;30517;51.932;4.278;2023-03-13T15:55:39;9.38;;;2.35;;
37297;SDS011;30517;51.932;4.278;2023-03-13T15:58:21;9.52;;;2.35;;
37297;SDS011;30517;51.932;4.278;2023-03-13T16:01:02;12.02;;;2.72;;
37297;SDS011;30517;51.932;4.278;2023-03-13T16:03:43;13.27;;;2.80;;
37297;SDS011;30517;51.932;4.278;2023-03-13T16:06:23;6.78;;;2.20;;
37297;SDS011;30517;51.932;4.278;2023-03-13T16:09:10;8.75;;;2.42;;
37297;SDS011;30517;51.932;4.278;2023-03-13T16:11:51;10.18;;;2.80;;
37297;SDS011;30517;51.932;4.278;2023-03-13T16:14:32;9.93;;;2.63;;
37297;SDS011;30517;51.932;4.278;2023-03-13T16:17:17;15.30;;;2.88;;
37297;SDS011;30517;51.932;4.278;2023-03-13T16:20:00;8.68;;;2.47;;
37297;SDS011;30517;51.932;4.278;2023-03-13T16:22:43;11.80;;;2.97;;
37297;SDS011;30517;51.932;4.278;2023-03-13T16:25:24;13.13;;;2.80;;
37297;SDS011;30517;51.932;4.278;2023-03-13T16:28:05;10.60;;;2.90;;
37297;SDS011;30517;51.932;4.278;2023-03-13T16:30:46;16.73;;;3.30;;
37297;SDS011;30517;51.932;4.278;2023-03-13T16:33:27;14.05;;;2.38;;
37297;SDS011;30517;51.932;4.278;2023-03-13T16:36:11;14.45;;;2.72;;
37297;SDS011;30517;51.932;4.278;2023-03-13T16:38:54;15.13;;;3.25;;
37297;SDS011;30517;51.932;4.278;2023-03-13T16:41:36;13.65;;;3.38;;
37297;SDS011;30517;51.932;4.278;2023-03-13T16:44:17;13.02;;;3.53;;
37297;SDS011;30517;51.932;4.278;2023-03-13T16:46:58;10.82;;;3.47;;
37297;SDS011;30517;51.932;4.278;2023-03-13T16:49:39;12.27;;;3.35;;
37297;SDS011;30517;51.932;4.278;2023-03-13T16:52:19;13.60;;;3.70;;
37297;SDS011;30517;51.932;4.278;2023-03-13T16:55:00;11.27;;;3.15;;
37297;SDS011;30517;51.932;4.278;2023-03-13T16:57:41;12.43;;;2.92;;
37297;SDS011;30517;51.932;4.278;2023-03-13T17:00:23;13.85;;;3.22;;
37297;SDS011;30517;51.932;4.278;2023-03-13T17:05:56;17.45;;;3.13;;
37297;SDS011;30517;51.932;4.278;2023-03-13T17:08:36;15.02;;;3.78;;
37297;SDS011;30517;51.932;4.278;2023-03-13T17:11:18;21.08;;;4.40;;
37297;SDS011;30517;51.932;4.278;2023-03-13T17:14:00;14.10;;;3.65;;
37297;SDS011;30517;51.932;4.278;2023-03-13T17:16:43;12.32;;;3.28;;
37297;SDS011;30517;51.932;4.278;2023-03-13T17:19:25;18.85;;;3.17;;
37297;SDS011;30517;51.932;4.278;2023-03-13T17:22:05;18.70;;;4.25;;
37297;SDS011;30517;51.932;4.278;2023-03-13T17:24:46;21.80;;;3.45;;
37297;SDS011;30517;51.932;4.278;2023-03-13T17:27:28;16.75;;;3.22;;
37297;SDS011;30517;51.932;4.278;2023-03-13T17:30:28;15.00;;;3.67;;
37297;SDS011;30517;51.932;4.278;2023-03-13T17:33:10;11.52;;;2.83;;
37297;SDS011;30517;51.932;4.278;2023-03-13T17:35:51;13.65;;;3.15;;
37297;SDS011;30517;51.932;4.278;2023-03-13T17:38:31;15.45;;;3.10;;
37297;SDS011;30517;51.932;4.278;2023-03-13T17:41:13;14.15;;;3.30;;
37297;SDS011;30517;51.932;4.278;2023-03-13T17:46:39;12.40;;;2.85;;
37297;SDS011;30517;51.932;4.278;2023-03-13T17:49:22;14.77;;;2.97;;
37297;SDS011;30517;51.932;4.278;2023-03-13T17:52:03;11.93;;;3.33;;
37297;SDS011;30517;51.932;4.278;2023-03-13T17:54:44;13.35;;;3.10;;
37297;SDS011;30517;51.932;4.278;2023-03-13T17:57:25;13.60;;;2.75;;
37297;SDS011;30517;51.932;4.278;2023-03-13T18:00:12;10.60;;;3.13;;
37297;SDS011;30517;51.932;4.278;2023-03-13T18:02:59;11.35;;;3.00;;
37297;SDS011;30517;51.932;4.278;2023-03-13T18:05:40;11.65;;;3.03;;
37297;SDS011;30517;51.932;4.278;2023-03-13T18:08:21;11.95;;;3.25;;
37297;SDS011;30517;51.932;4.278;2023-03-13T18:11:02;11.13;;;3.42;;
37297;SDS011;30517;51.932;4.278;2023-03-13T18:13:43;11.25;;;3.10;;
37297;SDS011;30517;51.932;4.278;2023-03-13T18:16:26;13.25;;;2.65;;
37297;SDS011;30517;51.932;4.278;2023-03-13T18:19:20;10.18;;;2.70;;
37297;SDS011;30517;51.932;4.278;2023-03-13T18:22:05;9.82;;;2.80;;
37297;SDS011;30517;51.932;4.278;2023-03-13T18:24:46;12.30;;;2.95;;
37297;SDS011;30517;51.932;4.278;2023-03-13T18:27:27;14.00;;;3.13;;
37297;SDS011;30517;51.932;4.278;2023-03-13T18:30:18;10.77;;;2.58;;
37297;SDS011;30517;51.932;4.278;2023-03-13T18:33:00;9.80;;;2.72;;
37297;SDS011;30517;51.932;4.278;2023-03-13T18:35:41;15.60;;;3.42;;
37297;SDS011;30517;51.932;4.278;2023-03-13T18:38:22;10.75;;;3.45;;
37297;SDS011;30517;51.932;4.278;2023-03-13T18:41:02;12.85;;;3.17;;
37297;SDS011;30517;51.932;4.278;2023-03-13T18:43:44;14.85;;;3.17;;
37297;SDS011;30517;51.932;4.278;2023-03-13T18:46:26;7.78;;;2.78;;
37297;SDS011;30517;51.932;4.278;2023-03-13T18:49:16;16.45;;;3.33;;
37297;SDS011;30517;51.932;4.278;2023-03-13T18:52:00;9.93;;;2.75;;
37297;SDS011;30517;51.932;4.278;2023-03-13T18:54:41;13.43;;;2.95;;
37297;SDS011;30517;51.932;4.278;2023-03-13T18:57:23;11.32;;;2.83;;
37297;SDS011;30517;51.932;4.278;2023-03-13T19:00:10;11.05;;;3.35;;
37297;SDS011;30517;51.932;4.278;2023-03-13T19:02:54;9.88;;;2.38;;
37297;SDS011;30517;51.932;4.278;2023-03-13T19:05:35;10.88;;;2.58;;
37297;SDS011;30517;51.932;4.278;2023-03-13T19:08:16;11.57;;;2.88;;
37297;SDS011;30517;51.932;4.278;2023-03-13T19:10:57;10.88;;;2.97;;
37297;SDS011;30517;51.932;4.278;2023-03-13T19:13:37;10.20;;;3.03;;
37297;SDS011;30517;51.932;4.278;2023-03-13T19:16:20;11.48;;;2.75;;
37297;SDS011;30517;51.932;4.278;2023-03-13T19:19:04;10.38;;;2.80;;
37297;SDS011;30517;51.932;4.278;2023-03-13T19:21:51;8.93;;;2.60;;
37297;SDS011;30517;51.932;4.278;2023-03-13T19:24:36;6.65;;;2.05;;
37297;SDS011;30517;51.932;4.278;2023-03-13T19:27:17;9.15;;;2.60;;
37297;SDS011;30517;51.932;4.278;2023-03-13T19:30:16;7.60;;;2.53;;
37297;SDS011;30517;51.932;4.278;2023-03-13T19:33:02;8.15;;;2.63;;
37297;SDS011;30517;51.932;4.278;2023-03-13T19:35:42;11.02;;;2.50;;
37297;SDS011;30517;51.932;4.278;2023-03-13T19:38:23;8.27;;;2.42;;
37297;SDS011;30517;51.932;4.278;2023-03-13T19:41:09;7.82;;;2.22;;
37297;SDS011;30517;51.932;4.278;2023-03-13T19:43:51;10.23;;;2.33;;
37297;SDS011;30517;51.932;4.278;2023-03-13T19:46:31;7.28;;;2.65;;
37297;SDS011;30517;51.932;4.278;2023-03-13T19:49:15;8.95;;;2.67;;
37297;SDS011;30517;51.932;4.278;2023-03-13T19:51:57;10.75;;;2.83;;
37297;SDS011;30517;51.932;4.278;2023-03-13T19:54:39;9.55;;;2.58;;
37297;SDS011;30517;51.932;4.278;2023-03-13T20:00:04;8.32;;;2.63;;
37297;SDS011;30517;51.932;4.278;2023-03-13T20:02:45;8.52;;;2.15;;
37297;SDS011;30517;51.932;4.278;2023-03-13T20:05:26;7.20;;;2.42;;
37297;SDS011;30517;51.932;4.278;2023-03-13T20:08:07;13.90;;;3.10;;
37297;SDS011;30517;51.932;4.278;2023-03-13T20:10:48;8.68;;;2.40;;
37297;SDS011;30517;51.932;4.278;2023-03-13T20:13:29;7.40;;;1.98;;
37297;SDS011;30517;51.932;4.278;2023-03-13T20:16:10;10.35;;;2.13;;
37297;SDS011;30517;51.932;4.278;2023-03-13T20:18:51;9.43;;;1.98;;
37297;SDS011;30517;51.932;4.278;2023-03-13T20:21:33;8.18;;;2.17;;
37297;SDS011;30517;51.932;4.278;2023-03-13T20:24:15;7.85;;;2.55;;
37297;SDS011;30517;51.932;4.278;2023-03-13T20:26:56;5.95;;;2.58;;
37297;SDS011;30517;51.932;4.278;2023-03-13T20:29:37;9.35;;;2.53;;
37297;SDS011;30517;51.932;4.278;2023-03-13T20:32:20;5.47;;;1.90;;
37297;SDS011;30517;51.932;4.278;2023-03-13T20:35:01;6.70;;;2.58;;
37297;SDS011;30517;51.932;4.278;2023-03-13T20:37:46;6.93;;;2.10;;
37297;SDS011;30517;51.932;4.278;2023-03-13T20:40:29;9.40;;;2.95;;
37297;SDS011;30517;51.932;4.278;2023-03-13T20:43:11;7.05;;;2.03;;
37297;SDS011;30517;51.932;4.278;2023-03-13T20:45:51;8.07;;;1.77;;
37297;SDS011;30517;51.932;4.278;2023-03-13T20:48:36;8.40;;;2.22;;
37297;SDS011;30517;51.932;4.278;2023-03-13T20:51:18;10.43;;;2.33;;
37297;SDS011;30517;51.932;4.278;2023-03-13T20:53:58;6.57;;;1.85;;
37297;SDS011;30517;51.932;4.278;2023-03-13T20:56:39;7.78;;;1.90;;
37297;SDS011;30517;51.932;4.278;2023-03-13T20:59:23;6.85;;;2.03;;
37297;SDS011;30517;51.932;4.278;2023-03-13T21:02:04;8.40;;;2.05;;
37297;SDS011;30517;51.932;4.278;2023-03-13T21:04:45;9.07;;;2.67;;
37297;SDS011;30517;51.932;4.278;2023-03-13T21:07:26;8.52;;;2.58;;
37297;SDS011;30517;51.932;4.278;2023-03-13T21:10:07;9.00;;;2.30;;
37297;SDS011;30517;51.932;4.278;2023-03-13T21:12:49;9.05;;;2.30;;
37297;SDS011;30517;51.932;4.278;2023-03-13T21:15:31;10.40;;;2.83;;
37297;SDS011;30517;51.932;4.278;2023-03-13T21:18:12;13.45;;;2.42;;
37297;SDS011;30517;51.932;4.278;2023-03-13T21:20:52;9.93;;;3.17;;
37297;SDS011;30517;51.932;4.278;2023-03-13T21:23:33;10.70;;;3.10;;
37297;SDS011;30517;51.932;4.278;2023-03-13T21:26:15;9.55;;;2.53;;
37297;SDS011;30517;51.932;4.278;2023-03-13T21:28:55;7.72;;;2.00;;
37297;SDS011;30517;51.932;4.278;2023-03-13T21:31:37;6.25;;;2.33;;
37297;SDS011;30517;51.932;4.278;2023-03-13T21:34:18;11.43;;;2.63;;
37297;SDS011;30517;51.932;4.278;2023-03-13T21:36:59;8.70;;;3.00;;
37297;SDS011;30517;51.932;4.278;2023-03-13T21:39:39;7.22;;;1.92;;
37297;SDS011;30517;51.932;4.278;2023-03-13T21:42:24;7.47;;;2.50;;
37297;SDS011;30517;51.932;4.278;2023-03-13T21:45:05;9.27;;;2.90;;
37297;SDS011;30517;51.932;4.278;2023-03-13T21:47:47;10.02;;;2.42;;
37297;SDS011;30517;51.932;4.278;2023-03-13T21:50:28;7.05;;;2.00;;
37297;SDS011;30517;51.932;4.278;2023-03-13T21:53:09;9.45;;;2.58;;
37297;SDS011;30517;51.932;4.278;2023-03-13T21:55:50;5.28;;;1.80;;
37297;SDS011;30517;51.932;4.278;2023-03-13T21:58:31;6.40;;;2.15;;
37297;SDS011;30517;51.932;4.278;2023-03-13T22:01:12;10.35;;;2.58;;
37297;SDS011;30517;51.932;4.278;2023-03-13T22:03:54;13.95;;;2.55;;
37297;SDS011;30517;51.932;4.278;2023-03-13T22:06:35;9.48;;;2.80;;
37297;SDS011;30517;51.932;4.278;2023-03-13T22:09:16;7.80;;;2.05;;
37297;SDS011;30517;51.932;4.278;2023-03-13T22:11:57;10.40;;;2.47;;
37297;SDS011;30517;51.932;4.278;2023-03-13T22:14:38;5.57;;;1.88;;
37297;SDS011;30517;51.932;4.278;2023-03-13T22:17:18;8.35;;;2.28;;
37297;SDS011;30517;51.932;4.278;2023-03-13T22:20:00;6.13;;;2.10;;
37297;SDS011;30517;51.932;4.278;2023-03-13T22:22:40;8.25;;;2.42;;
37297;SDS011;30517;51.932;4.278;2023-03-13T22:25:21;5.60;;;1.90;;
37297;SDS011;30517;51.932;4.278;2023-03-13T22:28:02;9.40;;;2.42;;
37297;SDS011;30517;51.932;4.278;2023-03-13T22:30:43;8.15;;;2.17;;
37297;SDS011;30517;51.932;4.278;2023-03-13T22:33:25;7.05;;;2.15;;
37297;SDS011;30517;51.932;4.278;2023-03-13T22:36:06;8.27;;;2.13;;
37297;SDS011;30517;51.932;4.278;2023-03-13T22:38:47;6.57;;;2.30;;
37297;SDS011;30517;51.932;4.278;2023-03-13T22:41:28;8.07;;;2.20;;
37297;SDS011;30517;51.932;4.278;2023-03-13T22:44:09;6.10;;;2.10;;
37297;SDS011;30517;51.932;4.278;2023-03-13T22:46:50;7.65;;;2.08;;
37297;SDS011;30517;51.932;4.278;2023-03-13T22:49:30;8.95;;;2.25;;
37297;SDS011;30517;51.932;4.278;2023-03-13T22:52:11;6.30;;;2.28;;
37297;SDS011;30517;51.932;4.278;2023-03-13T22:54:52;8.45;;;2.65;;
37297;SDS011;30517;51.932;4.278;2023-03-13T22:57:33;6.88;;;1.92;;
37297;SDS011;30517;51.932;4.278;2023-03-13T23:00:14;8.85;;;2.33;;
37297;SDS011;30517;51.932;4.278;2023-03-13T23:02:55;7.13;;;2.25;;
37297;SDS011;30517;51.932;4.278;2023-03-13T23:05:37;6.68;;;1.95;;
37297;SDS011;30517;51.932;4.278;2023-03-13T23:08:20;8.07;;;2.05;;
37297;SDS011;30517;51.932;4.278;2023-03-13T23:11:02;8.90;;;2.05;;
37297;SDS011;30517;51.932;4.278;2023-03-13T23:13:43;6.03;;;1.95;;
37297;SDS011;30517;51.932;4.278;2023-03-13T23:16:24;6.32;;;1.55;;
37297;SDS011;30517;51.932;4.278;2023-03-13T23:19:05;7.75;;;2.20;;
37297;SDS011;30517;51.932;4.278;2023-03-13T23:21:46;6.80;;;1.73;;
37297;SDS011;30517;51.932;4.278;2023-03-13T23:24:27;5.93;;;1.90;;
37297;SDS011;30517;51.932;4.278;2023-03-13T23:27:08;7.20;;;2.28;;
37297;SDS011;30517;51.932;4.278;2023-03-13T23:29:49;4.75;;;2.05;;
37297;SDS011;30517;51.932;4.278;2023-03-13T23:32:34;9.07;;;2.50;;
37297;SDS011;30517;51.932;4.278;2023-03-13T23:35:16;5.93;;;1.85;;
37297;SDS011;30517;51.932;4.278;2023-03-13T23:37:57;3.83;;;1.35;;
37297;SDS011;30517;51.932;4.278;2023-03-13T23:40:38;6.32;;;1.92;;